Time;durP1;ratioP1;P1;durP2;ratioP2;P2;SDS_P1;SDS_P2;PMS_P1;PMS_P2;Temp;Humidity;BMP_temperature;BMP_pressure;BME280_temperature;BME280_humidity;BME280_pressure;Samples;Min_cycle;Max_cycle;Signal;HPM_P1;HPM_P2
2023/05/19 00:01:06;;;;;;;3.78;1.60;;;13.70;66.20;;;;;;5034489;28;20100;-63
2023/05/19 00:03:39;;;;;;;2.17;1.88;;;13.70;66.20;;;;;;5035109;28;20033;-63
2023/05/19 00:06:09;;;;;;;1.80;1.42;;;13.70;66.40;;;;;;5032546;28;20033;-61
2023/05/19 00:08:37;;;;;;;2.25;1.70;;;13.70;66.30;;;;;;5028299;28;20536;-63
2023/05/19 00:11:03;;;;;;;1.70;1.60;;;13.70;66.40;;;;;;5033258;28;20225;-63
2023/05/19 00:13:29;;;;;;;1.90;1.60;;;13.70;66.40;;;;;;5035049;28;20539;-61
2023/05/19 00:15:55;;;;;;;2.42;1.70;;;13.60;66.30;;;;;;5036033;28;20033;-63
2023/05/19 00:18:21;;;;;;;2.15;1.70;;;13.60;66.40;;;;;;5036104;28;20029;-63
2023/05/19 00:20:48;;;;;;;3.22;2.08;;;13.60;66.40;;;;;;5033840;28;20037;-63
2023/05/19 00:23:13;;;;;;;3.97;2.00;;;13.60;66.40;;;;;;5034088;28;20033;-63
2023/05/19 00:25:39;;;;;;;2.75;1.70;;;13.50;66.50;;;;;;5029200;28;20431;-63
2023/05/19 00:28:05;;;;;;;1.92;1.40;;;13.50;66.50;;;;;;5031061;28;20231;-63
2023/05/19 00:30:30;;;;;;;3.05;1.90;;;13.50;66.50;;;;;;5027013;28;20040;-62
2023/05/19 00:32:56;;;;;;;4.03;1.70;;;13.50;66.50;;;;;;5029672;28;20033;-61
2023/05/19 00:35:25;;;;;;;2.30;1.60;;;13.50;66.60;;;;;;5028669;28;20025;-63
2023/05/19 00:37:50;;;;;;;1.85;1.52;;;13.40;66.60;;;;;;5030209;28;20045;-62
2023/05/19 00:40:17;;;;;;;1.63;1.52;;;13.40;66.60;;;;;;5030943;28;20052;-62
2023/05/19 00:42:43;;;;;;;2.08;1.60;;;13.40;66.70;;;;;;5028198;28;20045;-63
2023/05/19 00:45:08;;;;;;;3.05;1.60;;;13.30;66.60;;;;;;5030344;28;20021;-62
2023/05/19 00:47:34;;;;;;;3.17;1.80;;;13.30;66.70;;;;;;5027025;28;20132;-62
2023/05/19 00:49:59;;;;;;;1.67;1.40;;;13.30;66.60;;;;;;5029124;28;20124;-63
2023/05/19 00:52:26;;;;;;;2.15;1.95;;;13.30;66.60;;;;;;5029435;28;20071;-63
2023/05/19 00:54:54;;;;;;;2.17;1.60;;;13.20;66.70;;;;;;5030366;28;20112;-62
2023/05/19 00:57:20;;;;;;;1.75;1.60;;;13.20;66.70;;;;;;5031448;28;20044;-61
2023/05/19 00:59:49;;;;;;;1.80;1.70;;;13.20;66.80;;;;;;5033201;28;20041;-63
2023/05/19 01:02:15;;;;;;;3.20;1.92;;;13.10;66.90;;;;;;5036402;28;20037;-62
2023/05/19 01:04:42;;;;;;;2.35;1.70;;;13.10;67.00;;;;;;5030410;28;20393;-62
2023/05/19 01:07:09;;;;;;;1.92;1.70;;;13.10;67.10;;;;;;5037768;28;20092;-62
2023/05/19 01:09:36;;;;;;;3.75;1.85;;;13.10;67.10;;;;;;5033943;28;20033;-63
2023/05/19 01:12:01;;;;;;;2.70;2.20;;;13.00;67.10;;;;;;5040399;28;20037;-62
2023/05/19 01:14:28;;;;;;;2.47;1.80;;;13.00;67.20;;;;;;5037156;28;20033;-62
2023/05/19 01:16:57;;;;;;;2.75;1.80;;;12.90;67.30;;;;;;5030385;28;20075;-62
2023/05/19 01:19:55;;;;;;;2.78;2.20;;;12.90;67.40;;;;;;5036458;28;20456;-62
2023/05/19 01:22:41;;;;;;;2.95;2.22;;;12.90;68.50;;;;;;5035257;28;21579;-63
2023/05/19 01:25:55;;;;;;;2.42;2.15;;;12.90;68.10;;;;;;5033575;28;20485;-62
2023/05/19 01:28:47;;;;;;;3.03;2.22;;;12.80;68.00;;;;;;4988429;28;20045;-62
2023/05/19 01:31:15;;;;;;;4.03;2.47;;;12.80;67.90;;;;;;5032449;28;20120;-63
2023/05/19 01:33:42;;;;;;;3.78;2.80;;;12.80;67.60;;;;;;5032131;28;20508;-63
2023/05/19 01:36:11;;;;;;;3.67;2.47;;;12.70;67.80;;;;;;5035836;28;20079;-62
2023/05/19 01:38:37;;;;;;;2.78;2.45;;;12.80;68.00;;;;;;5032755;28;20052;-60
2023/05/19 01:41:05;;;;;;;4.57;2.70;;;12.70;68.00;;;;;;5033513;28;20071;-63
2023/05/19 01:43:32;;;;;;;3.88;2.70;;;12.70;68.10;;;;;;5032428;28;20033;-63
2023/05/19 01:45:58;;;;;;;3.78;2.33;;;12.60;68.20;;;;;;5033019;28;20498;-62
2023/05/19 01:48:24;;;;;;;3.08;2.40;;;12.60;68.20;;;;;;5037304;28;20068;-63
2023/05/19 01:50:50;;;;;;;6.85;3.15;;;12.60;68.30;;;;;;5032918;28;20037;-63
2023/05/19 01:53:16;;;;;;;3.75;2.88;;;12.60;68.50;;;;;;5034943;28;20048;-62
2023/05/19 01:55:46;;;;;;;4.25;2.97;;;12.50;68.50;;;;;;5032619;28;20034;-62
2023/05/19 01:58:33;;;;;;;8.05;2.90;;;12.50;68.60;;;;;;5039144;28;20516;-63
2023/05/19 02:01:18;;;;;;;5.22;2.75;;;12.50;68.70;;;;;;5035885;28;20033;-62
2023/05/19 02:03:59;;;;;;;4.18;2.80;;;12.50;69.00;;;;;;5033753;28;20332;-62
2023/05/19 02:06:43;;;;;;;5.07;2.90;;;12.40;69.20;;;;;;5033391;28;20041;-63
2023/05/19 02:09:21;;;;;;;5.18;3.00;;;12.50;69.50;;;;;;5034017;28;20044;-63
2023/05/19 02:12:02;;;;;;;7.60;3.28;;;12.40;69.00;;;;;;5012724;28;20030;-62
2023/05/19 02:14:36;;;;;;;5.40;3.05;;;12.40;69.50;;;;;;5014420;28;20048;-63
2023/05/19 02:17:04;;;;;;;5.13;3.20;;;12.30;69.30;;;;;;5018012;28;20388;-62
2023/05/19 02:19:32;;;;;;;6.38;3.10;;;12.30;69.20;;;;;;5017391;28;20037;-61
2023/05/19 02:21:58;;;;;;;4.85;2.97;;;12.30;69.30;;;;;;5017806;28;20042;-63
2023/05/19 02:24:24;;;;;;;5.82;3.00;;;12.30;69.40;;;;;;5017408;28;20442;-63
2023/05/19 02:26:51;;;;;;;9.05;3.22;;;12.40;69.60;;;;;;5013000;28;20666;-63
2023/05/19 02:29:16;;;;;;;5.57;3.40;;;12.20;69.50;;;;;;5015717;28;20293;-62
2023/05/19 02:31:42;;;;;;;7.50;3.63;;;12.20;70.50;;;;;;5011473;28;20037;-62
2023/05/19 02:34:08;;;;;;;7.68;3.42;;;12.20;69.70;;;;;;5011129;28;20305;-63
2023/05/19 02:36:35;;;;;;;4.82;3.03;;;12.20;70.70;;;;;;5011624;28;20044;-63
2023/05/19 02:39:01;;;;;;;7.53;2.97;;;12.20;69.90;;;;;;5017646;28;20484;-62
2023/05/19 02:41:27;;;;;;;7.65;3.10;;;12.20;69.90;;;;;;5030962;28;20040;-62
2023/05/19 02:43:53;;;;;;;5.90;3.65;;;12.20;70.00;;;;;;5032852;28;20037;-62
2023/05/19 02:46:19;;;;;;;6.72;3.28;;;12.10;70.00;;;;;;5033179;28;20127;-62
2023/05/19 02:48:45;;;;;;;5.50;3.25;;;12.20;70.20;;;;;;5031207;28;20172;-63
2023/05/19 02:51:10;;;;;;;4.90;3.00;;;12.10;70.20;;;;;;5031994;28;20156;-62
2023/05/19 02:53:36;;;;;;;7.13;3.60;;;12.10;70.20;;;;;;5033020;28;20037;-63
2023/05/19 02:56:02;;;;;;;7.32;3.80;;;12.20;70.40;;;;;;5033531;28;20095;-63
2023/05/19 02:58:27;;;;;;;8.38;4.30;;;12.20;70.40;;;;;;5029123;28;20233;-62
2023/05/19 03:00:54;;;;;;;5.85;3.17;;;12.10;70.30;;;;;;5034762;28;20033;-63
2023/05/19 03:03:20;;;;;;;6.00;3.38;;;12.10;70.40;;;;;;5031525;28;20037;-62
2023/05/19 03:05:46;;;;;;;8.90;4.32;;;12.10;70.60;;;;;;5033718;28;20029;-62
2023/05/19 03:08:12;;;;;;;5.22;3.58;;;12.10;70.60;;;;;;5032084;28;20464;-62
2023/05/19 03:10:37;;;;;;;7.60;3.58;;;12.10;70.60;;;;;;5031302;28;20570;-63
2023/05/19 03:13:03;;;;;;;7.45;3.45;;;12.10;70.70;;;;;;5031505;28;20048;-62
2023/05/19 03:15:29;;;;;;;8.18;3.63;;;12.10;70.80;;;;;;5035049;28;20036;-62
2023/05/19 03:17:55;;;;;;;6.95;3.75;;;12.10;70.80;;;;;;5031699;28;20331;-62
2023/05/19 03:20:21;;;;;;;7.30;3.45;;;12.10;70.80;;;;;;5034279;28;20033;-62
2023/05/19 03:22:46;;;;;;;7.85;3.67;;;12.10;70.90;;;;;;5032881;28;20048;-62
2023/05/19 03:25:12;;;;;;;8.48;3.70;;;12.10;71.00;;;;;;5036722;28;20045;-62
2023/05/19 03:27:38;;;;;;;12.35;3.60;;;12.10;70.90;;;;;;5029662;28;20037;-62
2023/05/19 03:30:04;;;;;;;8.00;3.70;;;12.10;70.90;;;;;;5029696;28;20029;-62
2023/05/19 03:32:31;;;;;;;12.82;3.63;;;12.10;71.10;;;;;;5031571;28;20524;-63
2023/05/19 03:34:57;;;;;;;8.57;3.58;;;12.10;71.10;;;;;;5032287;28;20111;-62
2023/05/19 03:37:23;;;;;;;7.63;3.65;;;12.10;71.30;;;;;;5030274;28;20501;-63
2023/05/19 03:39:48;;;;;;;9.13;3.53;;;12.00;71.30;;;;;;5031774;28;20034;-63
2023/05/19 03:42:14;;;;;;;7.82;3.47;;;12.00;72.10;;;;;;5036591;28;20033;-62
2023/05/19 03:44:40;;;;;;;7.57;3.50;;;12.10;71.40;;;;;;5034391;28;20528;-62
2023/05/19 03:47:06;;;;;;;8.90;3.60;;;12.00;71.30;;;;;;5033112;28;20037;-61
2023/05/19 03:49:31;;;;;;;8.20;3.60;;;12.00;71.30;;;;;;5032472;28;20094;-62
2023/05/19 03:52:03;;;;;;;11.00;3.83;;;12.00;71.40;;;;;;5022201;28;20429;-60
2023/05/19 03:54:30;;;;;;;10.30;3.58;;;12.00;71.50;;;;;;5009312;28;20486;-61
2023/05/19 03:56:56;;;;;;;10.15;3.50;;;12.00;71.40;;;;;;5004616;28;20041;-61
2023/05/19 03:59:22;;;;;;;10.38;3.67;;;12.00;71.60;;;;;;5004384;28;20406;-62
2023/05/19 04:01:48;;;;;;;9.55;3.90;;;12.00;71.60;;;;;;5002980;28;20129;-62
2023/05/19 04:04:13;;;;;;;14.25;3.90;;;12.00;71.60;;;;;;5001664;28;20443;-62
2023/05/19 04:06:39;;;;;;;8.60;3.67;;;12.00;71.70;;;;;;5003962;28;20302;-61
2023/05/19 04:09:14;;;;;;;4.65;3.20;;;12.00;71.80;;;;;;5009029;28;20189;-61
2023/05/19 04:11:40;;;;;;;11.55;3.40;;;12.00;72.00;;;;;;5007172;28;20092;-61
2023/05/19 04:14:06;;;;;;;10.05;3.30;;;12.00;71.80;;;;;;5008528;28;20037;-61
2023/05/19 04:16:32;;;;;;;8.23;3.30;;;12.00;71.80;;;;;;5010368;28;20072;-60
2023/05/19 04:18:57;;;;;;;9.60;3.50;;;12.00;71.80;;;;;;5006463;28;20147;-62
2023/05/19 04:21:23;;;;;;;6.78;3.38;;;12.00;71.80;;;;;;5009426;28;20034;-61
2023/05/19 04:23:48;;;;;;;9.25;3.22;;;12.00;71.80;;;;;;5005324;28;20494;-60
2023/05/19 04:26:14;;;;;;;8.60;3.15;;;12.00;71.90;;;;;;5006026;28;20041;-61
2023/05/19 04:28:43;;;;;;;9.70;3.58;;;12.00;72.00;;;;;;5001296;28;20039;-60
2023/05/19 04:31:09;;;;;;;6.80;2.97;;;12.00;72.00;;;;;;5002920;28;20061;-61
2023/05/19 04:33:38;;;;;;;8.98;3.40;;;12.00;72.00;;;;;;4999752;28;20038;-61
2023/05/19 04:36:07;;;;;;;7.50;3.35;;;12.00;72.10;;;;;;5000590;28;20474;-62
2023/05/19 04:38:33;;;;;;;6.20;3.22;;;12.10;72.10;;;;;;4998491;28;20026;-61
2023/05/19 04:41:00;;;;;;;7.30;2.75;;;12.00;72.10;;;;;;5006386;28;20041;-61
2023/05/19 04:43:27;;;;;;;6.85;3.45;;;12.00;72.30;;;;;;5005623;28;20042;-61
2023/05/19 04:45:53;;;;;;;8.75;3.13;;;12.00;72.30;;;;;;5006576;28;20157;-62
2023/05/19 04:48:20;;;;;;;5.78;3.25;;;12.00;72.30;;;;;;5005583;28;20465;-61
2023/05/19 04:50:47;;;;;;;6.05;3.40;;;12.00;72.30;;;;;;5002514;28;20029;-61
2023/05/19 04:53:16;;;;;;;8.30;3.40;;;12.10;72.40;;;;;;5003714;28;20393;-62
2023/05/19 04:55:42;;;;;;;8.82;3.33;;;12.00;72.30;;;;;;5005700;28;20054;-61
2023/05/19 04:58:08;;;;;;;8.18;3.55;;;12.10;72.30;;;;;;5007570;28;20042;-61
2023/05/19 05:00:35;;;;;;;7.22;3.25;;;12.10;72.40;;;;;;4999614;28;20041;-61
2023/05/19 05:03:03;;;;;;;5.90;3.35;;;12.10;72.40;;;;;;4993886;28;20045;-61
2023/05/19 05:05:29;;;;;;;9.93;3.90;;;12.10;72.30;;;;;;4986854;28;20034;-62
2023/05/19 05:07:56;;;;;;;8.57;3.28;;;12.10;72.30;;;;;;4987322;28;20042;-61
2023/05/19 05:10:21;;;;;;;6.45;3.15;;;12.20;72.30;;;;;;4985255;28;20141;-59
2023/05/19 05:12:47;;;;;;;6.93;3.00;;;12.20;72.50;;;;;;4985099;28;20030;-62
2023/05/19 05:15:13;;;;;;;9.85;3.33;;;12.20;72.50;;;;;;4986022;28;20041;-61
2023/05/19 05:17:39;;;;;;;7.80;3.13;;;12.20;72.50;;;;;;4990202;28;20042;-61
2023/05/19 05:20:06;;;;;;;8.80;3.63;;;12.20;72.70;;;;;;4986274;28;20738;-61
2023/05/19 05:22:32;;;;;;;7.90;2.95;;;12.30;72.70;;;;;;4984424;28;20038;-62
2023/05/19 05:24:58;;;;;;;9.20;3.10;;;12.30;72.70;;;;;;4987374;28;20042;-62
2023/05/19 05:27:24;;;;;;;7.90;3.03;;;12.30;72.60;;;;;;4986198;28;20052;-61
2023/05/19 05:29:51;;;;;;;6.00;3.25;;;12.30;72.90;;;;;;4988448;28;20076;-62
2023/05/19 05:32:16;;;;;;;7.60;3.13;;;12.40;73.10;;;;;;4984054;28;20042;-62
2023/05/19 05:34:42;;;;;;;5.10;2.83;;;12.40;72.80;;;;;;4988650;28;20037;-61
2023/05/19 05:37:08;;;;;;;9.07;3.70;;;12.40;72.60;;;;;;4988001;28;20065;-61
2023/05/19 05:39:33;;;;;;;7.07;3.50;;;12.50;72.60;;;;;;4988587;28;20133;-61
2023/05/19 05:41:59;;;;;;;6.70;3.45;;;12.50;72.40;;;;;;4986813;28;20176;-61
2023/05/19 05:44:25;;;;;;;6.65;3.03;;;12.50;72.40;;;;;;4986226;28;20022;-60
2023/05/19 05:46:51;;;;;;;7.20;3.15;;;12.60;72.40;;;;;;4986359;28;20061;-62
2023/05/19 05:49:16;;;;;;;7.03;2.85;;;12.60;72.30;;;;;;4987675;28;20045;-61
2023/05/19 05:51:42;;;;;;;6.60;3.20;;;12.60;72.30;;;;;;4985804;28;20832;-62
2023/05/19 05:54:11;;;;;;;5.55;3.20;;;12.60;72.30;;;;;;4985386;28;20038;-61
2023/05/19 05:56:37;;;;;;;10.88;3.28;;;12.60;72.30;;;;;;4991632;28;20449;-61
2023/05/19 05:59:03;;;;;;;7.80;3.10;;;12.70;72.30;;;;;;4996361;28;20038;-60
2023/05/19 06:01:31;;;;;;;7.97;3.10;;;12.70;72.30;;;;;;4985731;28;20070;-60
2023/05/19 06:03:57;;;;;;;7.07;3.22;;;12.70;72.40;;;;;;4989788;28;20069;-61
2023/05/19 06:06:22;;;;;;;6.55;3.13;;;12.70;72.40;;;;;;4987648;28;20134;-62
2023/05/19 06:08:48;;;;;;;8.35;2.80;;;12.70;72.40;;;;;;4984273;28;20490;-62
2023/05/19 06:11:13;;;;;;;7.90;3.53;;;12.80;72.50;;;;;;4986095;28;20062;-61
2023/05/19 06:13:42;;;;;;;7.10;3.22;;;12.80;72.30;;;;;;4986696;28;20041;-61
2023/05/19 06:16:08;;;;;;;7.68;3.28;;;12.90;72.20;;;;;;4997661;28;20668;-62
2023/05/19 06:18:33;;;;;;;6.65;3.10;;;12.80;72.10;;;;;;4997682;28;20530;-62
2023/05/19 06:21:00;;;;;;;7.78;3.13;;;12.90;72.10;;;;;;4997316;28;20414;-60
2023/05/19 06:23:27;;;;;;;10.35;3.45;;;12.90;72.20;;;;;;4994042;28;20042;-62
2023/05/19 06:25:53;;;;;;;5.10;3.03;;;13.00;72.10;;;;;;4986596;28;20045;-60
2023/05/19 06:28:19;;;;;;;6.95;3.17;;;13.00;72.10;;;;;;4985134;28;20061;-60
2023/05/19 06:30:44;;;;;;;6.35;2.83;;;13.00;72.10;;;;;;4984109;28;20058;-62
2023/05/19 06:33:10;;;;;;;10.35;3.17;;;13.10;73.00;;;;;;4982257;28;20030;-61
2023/05/19 06:35:36;;;;;;;7.80;3.20;;;13.10;72.10;;;;;;4989514;28;20503;-62
2023/05/19 06:38:01;;;;;;;6.28;3.05;;;13.10;72.10;;;;;;4986740;28;20131;-62
2023/05/19 06:40:27;;;;;;;5.30;3.17;;;13.20;72.10;;;;;;4986159;28;20091;-62
2023/05/19 06:42:53;;;;;;;7.53;2.70;;;13.20;72.00;;;;;;4983099;28;20084;-62
2023/05/19 06:45:21;;;;;;;8.13;3.00;;;13.30;72.10;;;;;;4986179;28;20049;-61
2023/05/19 06:47:47;;;;;;;6.75;3.28;;;13.30;72.00;;;;;;4985962;28;20506;-62
2023/05/19 06:50:12;;;;;;;9.25;3.05;;;13.30;71.90;;;;;;4987568;28;20054;-61
2023/05/19 06:52:38;;;;;;;8.07;2.90;;;13.40;71.80;;;;;;4985496;28;20560;-61
2023/05/19 06:55:04;;;;;;;7.53;2.67;;;13.50;71.90;;;;;;4985481;28;20046;-62
2023/05/19 06:57:30;;;;;;;6.43;2.78;;;13.50;71.60;;;;;;4984079;28;20038;-61
2023/05/19 06:59:55;;;;;;;4.95;2.53;;;13.60;71.90;;;;;;4985456;28;20040;-62
2023/05/19 07:02:21;;;;;;;4.80;2.70;;;13.70;72.00;;;;;;4986578;28;20030;-61
2023/05/19 07:04:47;;;;;;;10.10;3.05;;;13.70;72.00;;;;;;4982340;28;20048;-60
2023/05/19 07:07:12;;;;;;;6.18;2.67;;;13.80;71.90;;;;;;4985956;28;20126;-61
2023/05/19 07:09:38;;;;;;;4.95;2.60;;;13.90;71.70;;;;;;4985021;28;20031;-61
2023/05/19 07:12:04;;;;;;;7.50;2.88;;;14.00;71.30;;;;;;4989865;28;20042;-62
2023/05/19 07:14:30;;;;;;;5.05;3.00;;;14.00;71.00;;;;;;4984010;28;20132;-62
2023/05/19 07:16:56;;;;;;;8.07;2.67;;;14.10;70.80;;;;;;4993390;28;20498;-62
2023/05/19 07:19:22;;;;;;;6.13;2.90;;;14.20;70.70;;;;;;4990468;28;20157;-60
2023/05/19 07:21:48;;;;;;;6.97;2.38;;;14.30;70.70;;;;;;4987419;28;20042;-62
2023/05/19 07:24:14;;;;;;;8.63;2.63;;;14.30;70.60;;;;;;4982788;28;20042;-62
2023/05/19 07:26:40;;;;;;;5.60;2.58;;;14.40;70.40;;;;;;4984090;28;20108;-60
2023/05/19 07:29:05;;;;;;;5.00;2.47;;;14.50;70.30;;;;;;4982566;28;20045;-61
2023/05/19 07:31:31;;;;;;;6.45;2.83;;;14.60;70.30;;;;;;4984903;28;20038;-62
2023/05/19 07:33:58;;;;;;;5.13;3.00;;;14.60;70.30;;;;;;4981923;28;20549;-62
2023/05/19 07:36:23;;;;;;;4.63;2.90;;;14.70;69.80;;;;;;4984722;28;20038;-62
2023/05/19 07:38:49;;;;;;;4.95;2.63;;;14.80;69.60;;;;;;4982765;28;20689;-62
2023/05/19 07:41:14;;;;;;;3.90;2.42;;;14.80;69.30;;;;;;4982899;28;20042;-62
2023/05/19 07:43:41;;;;;;;8.52;3.10;;;14.90;69.30;;;;;;4982193;28;20054;-60
2023/05/19 07:46:06;;;;;;;5.47;2.78;;;14.90;69.30;;;;;;4982778;28;20417;-62
2023/05/19 07:48:32;;;;;;;5.55;2.70;;;15.00;69.30;;;;;;4982607;28;20115;-61
2023/05/19 07:50:57;;;;;;;8.88;3.00;;;15.10;69.20;;;;;;4983566;28;20590;-61
2023/05/19 07:53:23;;;;;;;8.07;3.10;;;15.10;69.20;;;;;;4987150;28;20043;-61
2023/05/19 07:55:49;;;;;;;5.25;2.90;;;15.20;69.00;;;;;;4983709;28;20030;-62
2023/05/19 07:58:14;;;;;;;6.28;2.60;;;15.30;68.50;;;;;;5008481;28;20405;-63
2023/05/19 08:00:42;;;;;;;3.80;2.50;;;15.40;68.40;;;;;;5001824;28;20653;-61
2023/05/19 08:03:10;;;;;;;4.70;2.65;;;15.40;68.50;;;;;;4996895;28;20042;-61
2023/05/19 08:05:36;;;;;;;5.13;2.80;;;15.50;68.50;;;;;;5006478;28;20121;-62
2023/05/19 08:08:03;;;;;;;5.07;2.80;;;15.50;68.10;;;;;;5004885;28;20117;-61
2023/05/19 08:10:28;;;;;;;4.28;2.22;;;15.60;67.80;;;;;;4988053;28;20030;-62
2023/05/19 08:12:54;;;;;;;4.10;2.60;;;15.70;67.70;;;;;;4999473;28;20053;-62
2023/05/19 08:15:20;;;;;;;2.92;2.25;;;15.70;67.40;;;;;;4996165;28;20030;-63
2023/05/19 08:17:46;;;;;;;6.45;2.63;;;15.80;67.20;;;;;;4989438;28;20068;-62
2023/05/19 08:20:12;;;;;;;4.45;2.35;;;15.80;66.90;;;;;;5000163;28;20050;-62
2023/05/19 08:22:38;;;;;;;4.32;2.35;;;15.80;66.60;;;;;;4992717;28;20298;-62
2023/05/19 08:25:04;;;;;;;5.72;2.95;;;15.90;66.70;;;;;;4996942;28;20413;-63
2023/05/19 08:27:30;;;;;;;5.10;2.78;;;15.90;66.20;;;;;;4996356;28;20045;-62
2023/05/19 08:29:56;;;;;;;4.28;2.42;;;15.90;66.00;;;;;;4999789;28;20049;-62
2023/05/19 08:32:22;;;;;;;3.40;2.50;;;15.90;66.20;;;;;;5002982;28;20029;-62
2023/05/19 08:34:47;;;;;;;2.97;2.10;;;15.90;66.20;;;;;;5000293;28;20038;-61
2023/05/19 08:37:13;;;;;;;8.48;2.55;;;15.90;66.20;;;;;;5007452;28;20030;-62
2023/05/19 08:39:39;;;;;;;5.00;2.50;;;15.90;66.40;;;;;;5006039;28;20129;-62
2023/05/19 08:42:06;;;;;;;4.68;2.70;;;15.90;66.20;;;;;;5012329;28;20034;-62
2023/05/19 08:44:32;;;;;;;4.00;2.35;;;16.00;66.20;;;;;;5015010;28;20038;-62
2023/05/19 08:47:04;;;;;;;5.03;2.85;;;16.00;65.90;;;;;;5017691;28;20037;-62
2023/05/19 08:49:34;;;;;;;4.57;2.63;;;16.00;65.60;;;;;;5010688;28;20033;-62
2023/05/19 08:52:10;;;;;;;3.17;2.30;;;16.10;65.00;;;;;;5009076;28;20510;-61
2023/05/19 08:54:49;;;;;;;5.80;2.80;;;16.10;65.30;;;;;;5011336;28;20041;-62
2023/05/19 08:57:15;;;;;;;3.83;2.47;;;16.10;65.20;;;;;;5011924;28;20060;-62
2023/05/19 08:59:42;;;;;;;5.35;2.75;;;16.20;65.80;;;;;;5012989;28;20037;-62
2023/05/19 09:02:09;;;;;;;5.45;2.53;;;16.30;66.70;;;;;;5012016;28;20045;-62
2023/05/19 09:04:36;;;;;;;4.88;2.65;;;16.30;65.90;;;;;;5015435;28;20041;-62
2023/05/19 09:07:02;;;;;;;4.25;2.83;;;16.40;65.90;;;;;;5019127;28;20048;-62
2023/05/19 09:09:29;;;;;;;4.47;2.70;;;16.50;65.90;;;;;;5017902;28;20037;-61
2023/05/19 09:11:54;;;;;;;7.45;2.90;;;16.70;65.80;;;;;;5003333;28;20046;-62
2023/05/19 09:14:21;;;;;;;3.42;2.47;;;16.80;65.40;;;;;;5000310;28;20041;-62
2023/05/19 09:16:49;;;;;;;3.45;2.30;;;16.90;65.20;;;;;;4997725;28;22160;-61
2023/05/19 09:19:15;;;;;;;5.40;2.67;;;16.90;64.70;;;;;;5005072;28;20041;-61
2023/05/19 09:21:41;;;;;;;3.42;2.33;;;17.00;64.20;;;;;;5009236;28;20561;-61
2023/05/19 09:24:08;;;;;;;7.22;2.70;;;17.10;64.00;;;;;;5013343;28;20132;-62
2023/05/19 09:26:41;;;;;;;4.93;2.60;;;17.10;63.60;;;;;;5006321;28;20060;-61
2023/05/19 09:29:15;;;;;;;4.65;2.47;;;17.20;63.40;;;;;;5006553;28;20134;-61
2023/05/19 09:31:48;;;;;;;4.93;2.80;;;17.20;63.60;;;;;;5007761;28;20107;-62
2023/05/19 09:34:14;;;;;;;5.15;2.90;;;17.30;63.00;;;;;;5008216;28;20124;-62
2023/05/19 09:36:41;;;;;;;4.68;2.90;;;17.30;63.00;;;;;;5009646;28;20121;-62
2023/05/19 09:39:17;;;;;;;4.00;2.70;;;17.40;62.80;;;;;;5015209;28;20195;-61
2023/05/19 09:41:43;;;;;;;3.58;2.72;;;17.40;62.60;;;;;;5013707;28;20034;-62
2023/05/19 09:44:29;;;;;;;5.22;2.80;;;17.40;62.80;;;;;;5006713;28;20100;-61
2023/05/19 09:46:55;;;;;;;3.38;2.55;;;17.40;62.20;;;;;;5007794;28;20478;-61
2023/05/19 09:49:22;;;;;;;4.45;2.80;;;17.40;62.40;;;;;;5011141;28;20038;-62
2023/05/19 09:51:50;;;;;;;4.50;3.10;;;17.50;62.70;;;;;;5005266;28;20072;-62
2023/05/19 09:54:16;;;;;;;6.35;3.35;;;17.50;63.20;;;;;;5007219;28;20042;-62
2023/05/19 09:56:42;;;;;;;4.47;2.95;;;17.60;61.10;;;;;;5009912;28;20130;-61
2023/05/19 09:59:07;;;;;;;7.05;3.50;;;17.60;60.90;;;;;;5010027;28;20148;-62
2023/05/19 10:01:35;;;;;;;5.18;3.00;;;17.50;61.00;;;;;;5000545;28;20119;-61
2023/05/19 10:04:03;;;;;;;4.85;3.00;;;17.50;61.10;;;;;;5009592;28;20034;-62
2023/05/19 10:06:29;;;;;;;5.10;3.17;;;17.50;61.20;;;;;;5013005;28;20038;-62
2023/05/19 10:08:55;;;;;;;6.13;3.38;;;17.40;61.30;;;;;;5012553;28;20038;-62
2023/05/19 10:11:22;;;;;;;5.15;3.38;;;17.50;61.30;;;;;;5011083;28;20042;-62
2023/05/19 10:13:50;;;;;;;3.90;3.50;;;17.40;61.30;;;;;;5014572;28;20038;-62
2023/05/19 10:16:17;;;;;;;6.75;3.78;;;17.40;61.20;;;;;;5012857;28;20119;-62
2023/05/19 10:18:43;;;;;;;6.47;4.03;;;17.40;61.40;;;;;;5013026;28;20058;-62
2023/05/19 10:21:09;;;;;;;7.70;4.30;;;17.30;61.20;;;;;;5010282;28;20421;-61
2023/05/19 10:23:35;;;;;;;6.00;4.15;;;17.20;61.00;;;;;;5008450;28;20112;-61
2023/05/19 10:26:05;;;;;;;5.82;4.35;;;17.10;61.30;;;;;;5011338;28;20078;-62
2023/05/19 10:28:36;;;;;;;7.68;4.28;;;17.00;61.80;;;;;;5014189;28;20056;-62
2023/05/19 10:31:06;;;;;;;6.68;3.83;;;16.90;62.00;;;;;;5011227;28;20181;-62
2023/05/19 10:34:11;;;;;;;7.25;4.03;;;16.80;62.20;;;;;;5011089;28;20034;-62
2023/05/19 10:36:59;;;;;;;4.13;3.58;;;16.70;62.70;;;;;;5013184;28;20037;-60
2023/05/19 10:39:31;;;;;;;6.45;4.20;;;16.70;62.90;;;;;;5009240;28;20033;-62
2023/05/19 10:42:24;;;;;;;7.85;4.10;;;16.60;62.70;;;;;;5010379;28;20136;-61
2023/05/19 10:45:11;;;;;;;5.22;3.90;;;16.60;62.80;;;;;;5009538;28;20539;-62
2023/05/19 10:47:40;;;;;;;4.65;3.67;;;16.60;62.70;;;;;;5008532;28;20041;-62
2023/05/19 10:50:06;;;;;;;5.32;3.92;;;16.50;63.00;;;;;;5012387;28;20177;-62
2023/05/19 10:52:36;;;;;;;6.00;3.80;;;16.50;63.10;;;;;;5007986;28;20034;-61
2023/05/19 10:55:03;;;;;;;4.80;3.50;;;16.50;63.30;;;;;;5007798;28;20615;-61
2023/05/19 10:57:32;;;;;;;7.07;3.75;;;16.40;63.40;;;;;;5006395;28;20061;-62
2023/05/19 11:00:07;;;;;;;5.85;3.95;;;16.40;63.40;;;;;;5010742;28;20037;-62
2023/05/19 11:02:42;;;;;;;6.47;4.30;;;16.40;63.50;;;;;;5010051;28;20038;-62
2023/05/19 11:05:17;;;;;;;7.25;4.30;;;16.40;62.80;;;;;;5012519;28;20418;-60
2023/05/19 11:07:43;;;;;;;4.53;4.00;;;16.30;62.90;;;;;;5001353;28;20029;-62
2023/05/19 11:10:10;;;;;;;7.80;4.30;;;16.30;63.30;;;;;;5010483;28;20120;-62
2023/05/19 11:12:44;;;;;;;6.68;3.92;;;16.20;63.40;;;;;;5007285;28;20030;-62
2023/05/19 11:15:14;;;;;;;7.40;4.32;;;16.30;63.60;;;;;;5009500;28;20057;-62
2023/05/19 11:17:41;;;;;;;5.72;4.15;;;16.20;63.60;;;;;;5010817;28;20120;-61
2023/05/19 11:20:11;;;;;;;6.93;4.25;;;16.30;63.80;;;;;;5008750;28;20037;-62
2023/05/19 11:22:37;;;;;;;4.18;3.78;;;16.20;63.80;;;;;;5011865;28;20025;-59
2023/05/19 11:25:03;;;;;;;8.15;4.15;;;16.20;63.90;;;;;;5011684;28;20114;-61
2023/05/19 11:27:30;;;;;;;7.13;4.07;;;16.30;63.60;;;;;;5007336;28;20125;-61
2023/05/19 11:29:58;;;;;;;4.10;3.67;;;16.20;64.10;;;;;;5010486;28;20045;-62
2023/05/19 11:32:29;;;;;;;5.28;3.97;;;16.30;64.30;;;;;;5008443;28;20084;-61
2023/05/19 11:34:56;;;;;;;6.03;4.00;;;16.30;64.50;;;;;;5008771;28;20187;-61
2023/05/19 11:37:22;;;;;;;5.30;3.97;;;16.40;64.50;;;;;;5009479;28;20025;-61
2023/05/19 11:39:48;;;;;;;6.05;4.00;;;16.40;64.30;;;;;;5007627;28;20038;-61
2023/05/19 11:42:13;;;;;;;7.38;4.13;;;16.50;65.00;;;;;;4993411;28;20068;-61
2023/05/19 11:44:44;;;;;;;6.50;4.18;;;16.50;64.00;;;;;;5006431;28;20417;-61
2023/05/19 11:47:10;;;;;;;6.50;4.35;;;16.60;63.70;;;;;;5011136;28;20061;-60
2023/05/19 11:49:36;;;;;;;4.88;3.97;;;16.60;63.60;;;;;;5014369;28;20049;-62
2023/05/19 11:52:03;;;;;;;5.65;3.90;;;16.60;63.50;;;;;;5011213;28;20033;-61
2023/05/19 11:54:31;;;;;;;7.38;3.85;;;16.60;63.70;;;;;;5013553;28;20347;-62
2023/05/19 11:56:58;;;;;;;4.38;3.50;;;16.60;63.40;;;;;;5014871;28;20037;-61
2023/05/19 11:59:35;;;;;;;6.03;3.60;;;16.70;63.60;;;;;;5015145;28;20099;-61
2023/05/19 12:02:20;;;;;;;7.40;4.05;;;16.70;63.00;;;;;;5014703;28;20069;-60
2023/05/19 12:04:48;;;;;;;5.72;3.67;;;16.60;62.40;;;;;;5012801;28;20030;-60
2023/05/19 12:07:18;;;;;;;5.75;3.67;;;16.60;62.80;;;;;;5013855;28;20058;-62
2023/05/19 12:09:45;;;;;;;5.10;3.85;;;16.60;62.80;;;;;;5015928;28;20030;-62
2023/05/19 12:12:18;;;;;;;4.25;3.85;;;16.60;62.90;;;;;;5013106;28;20089;-62
2023/05/19 12:14:49;;;;;;;5.70;4.20;;;16.60;63.00;;;;;;5013844;28;20034;-62
2023/05/19 12:17:18;;;;;;;4.40;3.97;;;16.60;62.80;;;;;;5017632;28;20053;-61
2023/05/19 12:19:48;;;;;;;6.13;3.70;;;16.60;62.80;;;;;;5018429;28;20034;-61
2023/05/19 12:22:15;;;;;;;4.40;3.90;;;16.60;62.90;;;;;;5016049;28;20053;-61
2023/05/19 12:24:42;;;;;;;4.88;3.70;;;16.70;63.10;;;;;;5017432;28;20034;-62
2023/05/19 12:27:21;;;;;;;7.22;4.00;;;16.60;62.90;;;;;;5017311;28;20029;-62
2023/05/19 12:29:51;;;;;;;5.03;4.18;;;16.60;62.70;;;;;;5017655;28;20043;-61
2023/05/19 12:32:17;;;;;;;5.70;4.10;;;16.60;62.70;;;;;;5017146;28;20050;-61
2023/05/19 12:34:43;;;;;;;6.70;4.53;;;16.60;62.70;;;;;;5017582;28;20064;-62
2023/05/19 12:37:09;;;;;;;5.60;4.28;;;16.70;62.70;;;;;;5016614;28;20553;-61
2023/05/19 12:39:35;;;;;;;5.18;4.25;;;16.70;62.60;;;;;;5016628;28;20126;-61
2023/05/19 12:42:09;;;;;;;7.35;4.63;;;16.70;63.20;;;;;;5018548;28;20068;-60
2023/05/19 12:44:53;;;;;;;5.78;4.95;;;16.70;62.80;;;;;;5016478;28;20040;-60
2023/05/19 12:47:19;;;;;;;7.20;4.90;;;16.80;62.90;;;;;;5018118;28;20085;-60
2023/05/19 12:50:04;;;;;;;5.75;4.38;;;16.80;62.60;;;;;;5019101;28;20037;-61